Time;durP1;ratioP1;P1;durP2;ratioP2;P2;SDS_P1;SDS_P2;PMS_P1;PMS_P2;Temp;Humidity;BMP_temperature;BMP_pressure;BME280_temperature;BME280_humidity;BME280_pressure;Samples;Min_cycle;Max_cycle;Signal;HPM_P1;HPM_P2
2022/01/27 00:00:49;;;;;;;19.95;8.45;;;2.80;52.60;;;;;;5088697;28;34207;-75
2022/01/27 00:03:22;;;;;;;20.30;7.57;;;2.80;52.60;;;;;;5069696;28;34369;-75
2022/01/27 00:05:53;;;;;;;21.73;8.32;;;2.90;52.60;;;;;;5086905;28;34242;-76
2022/01/27 00:08:27;;;;;;;14.98;7.95;;;2.80;52.50;;;;;;5085964;28;34122;-75
2022/01/27 00:10:59;;;;;;;15.05;7.78;;;2.90;52.60;;;;;;5070131;28;36051;-76
2022/01/27 00:13:30;;;;;;;16.65;7.53;;;2.80;52.60;;;;;;5104174;28;34155;-76
2022/01/27 00:16:11;;;;;;;17.77;8.13;;;2.80;52.50;;;;;;5086418;28;34087;-76
2022/01/27 00:18:38;;;;;;;16.58;7.50;;;2.80;52.60;;;;;;5073547;28;34830;-75
2022/01/27 00:21:04;;;;;;;19.33;7.85;;;2.90;52.70;;;;;;5085798;28;35639;-76
2022/01/27 00:23:30;;;;;;;19.98;8.00;;;2.90;52.60;;;;;;5086000;28;34749;-76
2022/01/27 00:25:56;;;;;;;17.48;7.80;;;2.90;52.60;;;;;;5086376;28;34313;-75
2022/01/27 00:28:22;;;;;;;11.20;6.30;;;2.90;52.50;;;;;;5085961;28;34126;-75
2022/01/27 00:30:48;;;;;;;14.55;7.03;;;2.80;52.50;;;;;;5085165;28;36650;-75
2022/01/27 00:33:14;;;;;;;16.70;7.30;;;2.80;52.50;;;;;;5085493;28;34218;-75
2022/01/27 00:35:40;;;;;;;16.73;7.07;;;2.80;52.50;;;;;;5085592;28;34186;-75
2022/01/27 00:38:11;;;;;;;12.45;6.65;;;2.80;52.60;;;;;;5103829;28;34151;-75
2022/01/27 00:40:37;;;;;;;20.27;8.35;;;2.80;52.60;;;;;;5103245;28;34753;-76
2022/01/27 00:43:03;;;;;;;16.30;7.30;;;2.80;52.60;;;;;;5085585;28;34253;-75
2022/01/27 00:45:31;;;;;;;18.00;7.78;;;2.90;52.70;;;;;;5085094;28;34324;-76
2022/01/27 00:48:01;;;;;;;18.95;7.72;;;2.90;52.60;;;;;;5085669;28;34352;-75
2022/01/27 00:50:27;;;;;;;15.80;6.90;;;2.80;52.50;;;;;;5085088;28;35516;-75
2022/01/27 00:52:56;;;;;;;21.20;7.93;;;2.90;52.60;;;;;;5085023;28;34154;-76
2022/01/27 00:55:24;;;;;;;15.52;7.38;;;2.90;52.50;;;;;;5052659;28;34316;-76
2022/01/27 01:00:42;;;;;;;16.02;7.78;;;2.90;52.60;;;;;;5087701;28;34408;-76
2022/01/27 01:03:20;;;;;;;15.68;8.40;;;2.90;52.60;;;;;;5103423;28;34165;-76
2022/01/27 01:06:12;;;;;;;14.52;7.15;;;2.90;52.60;;;;;;5085654;28;34270;-76
2022/01/27 01:16:54;;;;;;;13.35;5.93;;;2.90;52.30;;;;;;5103223;28;34177;-76
2022/01/27 01:19:34;;;;;;;17.80;7.13;;;2.80;52.30;;;;;;5085620;28;34252;-76
2022/01/27 01:29:28;;;;;;;12.43;6.68;;;2.80;52.40;;;;;;5103104;28;35010;-76
2022/01/27 01:30:32;;;;;;;13.13;5.75;;;2.80;52.30;;;;;;5087500;28;34259;-76
2022/01/27 01:32:58;;;;;;;14.10;7.05;;;2.80;52.00;;;;;;5087800;28;34557;-76
2022/01/27 01:35:35;;;;;;;12.40;6.60;;;2.80;52.20;;;;;;5102813;28;34100;-76
2022/01/27 01:38:02;;;;;;;14.27;6.88;;;2.80;52.30;;;;;;5103587;28;34301;-75
2022/01/27 01:40:28;;;;;;;15.68;6.43;;;2.80;52.30;;;;;;5084328;28;34520;-76
2022/01/27 01:42:54;;;;;;;11.75;5.63;;;2.80;52.30;;;;;;5084015;28;35791;-76
2022/01/27 01:45:21;;;;;;;11.40;5.53;;;2.80;52.30;;;;;;5084925;28;34223;-76
2022/01/27 01:47:49;;;;;;;14.93;6.80;;;2.80;52.30;;;;;;5084757;28;34182;-76
2022/01/27 01:50:15;;;;;;;14.68;6.50;;;2.80;52.40;;;;;;5084668;28;34130;-75
2022/01/27 01:52:43;;;;;;;13.77;6.70;;;2.80;52.40;;;;;;5102057;28;34207;-76
2022/01/27 01:55:10;;;;;;;13.52;6.18;;;2.80;52.30;;;;;;5050907;28;34225;-75
2022/01/27 01:57:37;;;;;;;11.23;6.35;;;2.90;52.40;;;;;;5084827;28;34179;-76
2022/01/27 02:00:06;;;;;;;15.75;7.55;;;2.90;52.40;;;;;;5085007;28;34492;-75
2022/01/27 02:02:32;;;;;;;13.57;6.20;;;2.90;52.30;;;;;;5085029;28;34477;-76
2022/01/27 02:04:58;;;;;;;16.40;7.43;;;2.90;53.10;;;;;;5083879;28;34958;-75
2022/01/27 02:07:48;;;;;;;15.30;6.90;;;2.90;52.30;;;;;;5067727;28;34307;-76
2022/01/27 02:18:22;;;;;;;14.75;6.50;;;2.90;52.30;;;;;;5077018;28;34378;-75
2022/01/27 02:20:48;;;;;;;17.73;7.53;;;2.90;52.40;;;;;;5088192;28;34310;-75
2022/01/27 02:23:14;;;;;;;17.08;6.32;;;2.90;52.40;;;;;;5106234;28;34257;-76
2022/01/27 02:25:40;;;;;;;12.63;5.78;;;2.90;52.40;;;;;;5054188;28;34176;-76
2022/01/27 02:28:06;;;;;;;15.75;7.10;;;2.90;52.50;;;;;;5087319;28;34057;-75
2022/01/27 02:30:32;;;;;;;12.93;6.10;;;2.90;52.40;;;;;;5070672;28;34543;-76
2022/01/27 02:32:59;;;;;;;14.32;6.10;;;2.90;52.50;;;;;;5087383;28;36172;-75
2022/01/27 02:35:28;;;;;;;12.35;5.43;;;2.90;52.50;;;;;;5070290;28;34236;-76
2022/01/27 02:37:55;;;;;;;14.05;6.10;;;3.00;52.50;;;;;;5105139;28;34258;-75
2022/01/27 02:40:42;;;;;;;12.48;6.25;;;2.90;52.60;;;;;;5070738;28;34387;-75
2022/01/27 02:43:09;;;;;;;14.38;5.93;;;3.00;52.50;;;;;;5086772;28;35938;-76
2022/01/27 02:45:55;;;;;;;12.10;5.72;;;2.90;52.60;;;;;;5105577;28;34056;-76
2022/01/27 02:48:21;;;;;;;14.00;5.93;;;2.90;52.50;;;;;;5105910;28;34305;-76
2022/01/27 02:50:47;;;;;;;13.27;6.10;;;2.90;52.60;;;;;;5087390;28;34261;-76
2022/01/27 02:53:13;;;;;;;13.63;5.85;;;2.90;52.60;;;;;;5069929;28;36760;-76
2022/01/27 02:55:39;;;;;;;11.75;5.93;;;2.90;52.70;;;;;;5070312;28;34167;-76
2022/01/27 02:58:05;;;;;;;13.95;6.00;;;2.90;52.70;;;;;;5087431;28;34088;-75
2022/01/27 03:00:33;;;;;;;14.15;6.55;;;3.00;52.60;;;;;;5105812;28;34142;-76
2022/01/27 03:02:59;;;;;;;10.73;5.78;;;3.00;52.60;;;;;;5087346;28;35272;-76
2022/01/27 03:05:25;;;;;;;16.35;6.85;;;3.00;52.60;;;;;;5086401;28;34284;-75
2022/01/27 03:07:51;;;;;;;12.35;6.13;;;3.00;52.60;;;;;;5086745;28;34431;-76
2022/01/27 03:10:19;;;;;;;19.27;6.50;;;3.00;52.60;;;;;;5105344;28;34299;-76
2022/01/27 03:12:47;;;;;;;14.52;6.00;;;3.00;52.60;;;;;;5086170;28;36636;-76
2022/01/27 03:15:13;;;;;;;11.32;5.72;;;3.00;52.60;;;;;;5087121;28;34448;-75
2022/01/27 03:17:39;;;;;;;12.63;5.82;;;3.00;52.60;;;;;;5069827;28;34224;-76
2022/01/27 03:20:08;;;;;;;12.77;5.15;;;3.00;52.60;;;;;;5070054;28;34286;-76
2022/01/27 03:22:34;;;;;;;14.75;6.13;;;3.00;52.60;;;;;;5051341;28;35734;-76
2022/01/27 03:25:00;;;;;;;13.90;5.80;;;3.10;52.60;;;;;;5069828;28;34185;-75
2022/01/27 03:27:27;;;;;;;15.27;6.50;;;3.00;52.60;;;;;;5086588;28;34193;-76
2022/01/27 03:29:53;;;;;;;13.13;6.68;;;3.00;52.70;;;;;;5086899;28;34079;-75
2022/01/27 03:32:19;;;;;;;13.43;5.88;;;3.00;52.60;;;;;;5085816;28;35838;-75
2022/01/27 03:34:46;;;;;;;12.82;5.85;;;3.10;52.70;;;;;;5086536;28;34261;-75
2022/01/27 03:37:12;;;;;;;11.73;6.05;;;3.10;52.60;;;;;;5086585;28;34281;-76
2022/01/27 03:39:40;;;;;;;11.93;6.07;;;3.10;52.60;;;;;;5104519;28;34379;-76
2022/01/27 03:42:07;;;;;;;15.35;6.35;;;3.10;52.60;;;;;;5086151;28;35795;-75
2022/01/27 03:44:34;;;;;;;14.27;6.32;;;3.10;52.60;;;;;;5086067;28;34208;-76
2022/01/27 03:47:00;;;;;;;16.50;6.15;;;3.10;52.60;;;;;;5086435;28;34250;-75
2022/01/27 03:49:26;;;;;;;12.77;5.93;;;3.10;52.60;;;;;;5086394;28;34269;-76
2022/01/27 03:51:58;;;;;;;11.93;6.15;;;3.10;52.60;;;;;;5086330;28;35581;-76
2022/01/27 03:54:25;;;;;;;12.98;6.28;;;3.10;52.60;;;;;;5087100;28;34153;-75
2022/01/27 03:56:51;;;;;;;13.48;6.45;;;3.10;52.80;;;;;;5085899;28;34160;-75
2022/01/27 03:59:17;;;;;;;13.27;6.40;;;3.10;52.70;;;;;;5086531;28;34211;-76
2022/01/27 04:01:43;;;;;;;11.93;5.65;;;3.10;52.70;;;;;;5086028;28;34238;-76
2022/01/27 04:04:09;;;;;;;13.00;5.45;;;3.20;52.70;;;;;;5085635;28;34213;-76
2022/01/27 04:06:39;;;;;;;15.52;6.78;;;3.20;52.80;;;;;;5085838;28;34461;-76
2022/01/27 04:09:07;;;;;;;15.82;7.10;;;3.20;52.70;;;;;;5069506;28;34225;-76
2022/01/27 04:11:33;;;;;;;14.77;6.57;;;3.20;52.70;;;;;;5069354;28;34471;-76
2022/01/27 04:13:59;;;;;;;13.30;6.70;;;3.20;52.70;;;;;;5085777;28;34277;-75
2022/01/27 04:16:25;;;;;;;11.13;6.43;;;3.20;52.70;;;;;;5103904;28;34215;-76
2022/01/27 04:18:52;;;;;;;16.52;6.40;;;3.20;52.60;;;;;;5085598;28;34463;-76
2022/01/27 04:21:18;;;;;;;15.40;6.20;;;3.20;52.70;;;;;;5068631;28;36601;-76
2022/01/27 04:23:45;;;;;;;13.57;6.90;;;3.20;52.80;;;;;;5085943;28;34124;-76
2022/01/27 04:26:14;;;;;;;18.33;7.05;;;3.20;52.80;;;;;;5085806;28;34175;-76
2022/01/27 04:28:42;;;;;;;18.40;7.20;;;3.30;52.80;;;;;;5085679;28;34128;-75
2022/01/27 04:31:09;;;;;;;14.93;7.00;;;3.30;52.80;;;;;;5069253;28;36758;-75
2022/01/27 04:33:37;;;;;;;16.98;7.05;;;3.30;52.80;;;;;;5085265;28;34775;-75
2022/01/27 04:36:10;;;;;;;15.00;6.75;;;3.30;52.80;;;;;;5086022;28;34238;-76
2022/01/27 04:38:48;;;;;;;14.10;6.55;;;3.30;52.80;;;;;;5069991;28;34082;-75
2022/01/27 04:41:21;;;;;;;17.90;7.22;;;3.30;52.90;;;;;;5072357;28;34419;-76
2022/01/27 04:43:55;;;;;;;18.27;6.97;;;3.30;52.90;;;;;;5103605;28;34197;-76
2022/01/27 04:49:05;;;;;;;18.63;8.00;;;3.30;53.00;;;;;;5103042;28;34137;-76
2022/01/27 04:51:31;;;;;;;20.85;8.55;;;3.30;53.00;;;;;;5085129;27;35787;-76
2022/01/27 04:54:11;;;;;;;17.33;7.78;;;3.30;53.00;;;;;;5068774;28;34368;-76
2022/01/27 04:56:40;;;;;;;24.75;7.65;;;3.30;53.10;;;;;;5103506;27;34355;-75
2022/01/27 04:59:15;;;;;;;21.92;8.23;;;3.30;53.00;;;;;;5103511;28;34235;-75
2022/01/27 05:01:48;;;;;;;14.80;7.38;;;3.30;53.10;;;;;;5085009;28;36492;-75
2022/01/27 05:04:18;;;;;;;22.00;9.02;;;3.30;53.10;;;;;;5085490;28;34138;-75
2022/01/27 05:06:44;;;;;;;20.55;9.05;;;3.30;53.10;;;;;;5085430;27;34480;-76
2022/01/27 05:09:10;;;;;;;15.40;7.53;;;3.40;53.10;;;;;;5085195;28;34060;-76
2022/01/27 05:11:44;;;;;;;23.23;8.93;;;3.30;53.20;;;;;;5103007;28;34331;-76
2022/01/27 05:14:17;;;;;;;18.98;7.28;;;3.30;53.30;;;;;;5084590;28;34187;-76
2022/01/27 05:16:43;;;;;;;20.55;8.38;;;3.30;53.30;;;;;;5084599;28;34439;-76
2022/01/27 05:19:10;;;;;;;19.73;8.55;;;3.30;53.30;;;;;;5068205;28;34472;-76
2022/01/27 05:21:37;;;;;;;20.27;8.57;;;3.30;53.40;;;;;;5084824;28;36721;-76
2022/01/27 05:24:04;;;;;;;24.13;9.13;;;3.30;53.60;;;;;;5103079;28;34107;-76
2022/01/27 05:26:30;;;;;;;19.40;8.80;;;3.30;53.60;;;;;;5084304;28;34212;-75
2022/01/27 05:28:56;;;;;;;23.52;9.75;;;3.30;53.80;;;;;;5085093;28;34349;-76
2022/01/27 05:31:22;;;;;;;26.50;9.45;;;3.30;53.80;;;;;;5084630;28;35489;-76
2022/01/27 05:33:48;;;;;;;23.63;9.32;;;3.30;53.90;;;;;;5067774;28;34239;-76
2022/01/27 05:36:14;;;;;;;21.20;9.38;;;3.30;53.90;;;;;;5067861;28;34208;-77
2022/01/27 05:38:40;;;;;;;22.27;9.18;;;3.30;54.00;;;;;;5067962;28;34192;-76
2022/01/27 05:41:06;;;;;;;21.75;9.18;;;3.30;54.10;;;;;;5084993;28;35192;-76
2022/01/27 05:43:33;;;;;;;23.52;8.90;;;3.30;54.00;;;;;;5067447;28;34116;-76
2022/01/27 05:45:59;;;;;;;26.70;10.07;;;3.30;54.10;;;;;;5086905;28;34182;-76
2022/01/27 05:48:25;;;;;;;25.05;9.23;;;3.30;54.20;;;;;;5106433;28;34339;-77
2022/01/27 05:50:51;;;;;;;22.75;8.23;;;3.30;54.20;;;;;;5070898;28;35857;-77
2022/01/27 05:53:17;;;;;;;21.73;9.32;;;3.30;54.40;;;;;;5088850;28;34298;-76
2022/01/27 05:55:43;;;;;;;25.23;9.05;;;3.30;54.40;;;;;;5088041;28;34542;-76
2022/01/27 05:58:09;;;;;;;22.73;9.82;;;3.30;54.40;;;;;;5088360;28;34349;-76
2022/01/27 06:00:35;;;;;;;27.58;9.75;;;3.30;54.50;;;;;;5070072;28;35925;-76
2022/01/27 06:03:02;;;;;;;26.13;9.93;;;3.30;54.50;;;;;;5087830;28;34089;-75
2022/01/27 06:05:28;;;;;;;23.25;8.82;;;3.30;54.60;;;;;;5088191;28;34313;-77
2022/01/27 06:07:54;;;;;;;26.13;10.57;;;3.30;54.80;;;;;;5106059;28;34419;-76
2022/01/27 06:10:20;;;;;;;19.38;9.23;;;3.30;54.60;;;;;;5086812;28;36243;-76
2022/01/27 06:12:49;;;;;;;21.98;9.02;;;3.30;55.10;;;;;;5105689;28;34394;-76
2022/01/27 06:15:16;;;;;;;23.85;9.02;;;3.30;54.70;;;;;;5071462;28;34200;-76
2022/01/27 06:17:42;;;;;;;21.83;9.00;;;3.30;54.70;;;;;;5070626;28;34596;-76
2022/01/27 06:20:08;;;;;;;23.67;8.63;;;3.30;54.80;;;;;;5087978;28;35639;-76
2022/01/27 06:22:34;;;;;;;22.25;9.13;;;3.30;54.70;;;;;;5070612;28;34283;-76
2022/01/27 06:25:00;;;;;;;22.88;9.20;;;3.30;54.80;;;;;;5087537;28;34186;-76
2022/01/27 06:27:26;;;;;;;19.38;8.27;;;3.30;54.70;;;;;;5070798;28;34461;-76
2022/01/27 06:29:52;;;;;;;19.42;8.77;;;3.30;54.70;;;;;;5087385;28;36004;-76
2022/01/27 06:32:18;;;;;;;21.40;8.65;;;3.30;54.60;;;;;;5070828;28;34269;-76
2022/01/27 06:34:44;;;;;;;18.38;8.98;;;3.30;54.70;;;;;;5058984;28;34133;-76
2022/01/27 06:37:10;;;;;;;15.90;8.13;;;3.30;54.70;;;;;;5030812;28;34539;-76
2022/01/27 06:39:36;;;;;;;14.75;7.05;;;3.30;54.70;;;;;;5031742;28;35524;-77
2022/01/27 06:42:07;;;;;;;16.70;7.78;;;3.30;54.80;;;;;;5051557;28;34358;-77
2022/01/27 06:44:34;;;;;;;20.08;8.80;;;3.30;55.50;;;;;;5067136;28;34676;-76
2022/01/27 06:47:00;;;;;;;16.33;7.30;;;3.30;54.70;;;;;;5066856;28;34633;-76
2022/01/27 06:49:26;;;;;;;16.67;7.40;;;3.30;54.90;;;;;;5066959;28;35629;-75
2022/01/27 06:51:52;;;;;;;17.10;8.20;;;3.20;54.90;;;;;;5050585;28;34144;-75
2022/01/27 06:54:18;;;;;;;21.83;8.15;;;3.30;54.80;;;;;;5084993;28;34198;-76
2022/01/27 06:56:45;;;;;;;19.48;8.77;;;3.30;54.70;;;;;;5084476;28;34261;-75
2022/01/27 06:59:11;;;;;;;20.48;8.40;;;3.30;54.70;;;;;;5049604;28;36488;-76
2022/01/27 07:01:39;;;;;;;15.50;7.75;;;3.30;54.90;;;;;;5067047;28;34430;-76
2022/01/27 07:04:05;;;;;;;19.33;7.88;;;3.30;54.80;;;;;;5066677;28;34274;-75
2022/01/27 07:06:33;;;;;;;19.83;8.20;;;3.20;54.60;;;;;;5066993;28;34215;-76
2022/01/27 07:08:59;;;;;;;15.32;7.18;;;3.20;54.70;;;;;;5084372;28;34332;-76
2022/01/27 07:11:25;;;;;;;20.65;8.23;;;3.20;54.90;;;;;;5049792;28;34211;-76
2022/01/27 07:13:51;;;;;;;19.85;8.13;;;3.20;55.00;;;;;;5066524;28;34207;-76
2022/01/27 07:16:17;;;;;;;15.55;7.97;;;3.20;54.90;;;;;;5067000;28;34445;-76
2022/01/27 07:18:43;;;;;;;20.52;8.95;;;3.20;54.90;;;;;;5066021;28;35512;-76
2022/01/27 07:21:09;;;;;;;18.08;7.97;;;3.20;54.70;;;;;;5066401;28;34217;-76
2022/01/27 07:23:35;;;;;;;15.57;7.90;;;3.20;54.70;;;;;;5083698;28;34372;-76
2022/01/27 07:26:01;;;;;;;21.02;8.70;;;3.20;54.70;;;;;;5066508;28;34400;-76
2022/01/27 07:28:27;;;;;;;20.73;8.52;;;3.20;55.10;;;;;;5066324;28;35749;-76
2022/01/27 07:30:53;;;;;;;17.55;7.70;;;3.20;54.70;;;;;;5066101;28;34247;-76
2022/01/27 07:33:19;;;;;;;22.42;8.25;;;3.20;55.00;;;;;;5066704;28;34183;-76
2022/01/27 07:35:45;;;;;;;18.13;7.68;;;3.20;54.60;;;;;;5084198;28;34386;-76
2022/01/27 07:38:11;;;;;;;16.88;7.60;;;3.20;54.70;;;;;;5049020;28;36474;-76
2022/01/27 07:40:37;;;;;;;22.27;8.63;;;3.30;54.80;;;;;;5066280;28;34377;-76
2022/01/27 07:43:03;;;;;;;19.75;9.00;;;3.30;54.60;;;;;;5066250;28;34408;-76
2022/01/27 07:45:29;;;;;;;20.17;8.18;;;3.30;54.70;;;;;;5065787;28;34525;-75
2022/01/27 07:47:57;;;;;;;19.70;8.18;;;3.30;54.60;;;;;;5065791;28;35763;-76
2022/01/27 07:50:28;;;;;;;18.85;8.23;;;3.30;54.50;;;;;;5065628;28;34271;-76
2022/01/27 07:52:55;;;;;;;19.88;7.38;;;3.40;54.40;;;;;;5050042;28;34482;-76
2022/01/27 07:55:21;;;;;;;21.95;8.88;;;3.40;54.50;;;;;;5066179;28;34250;-76
2022/01/27 07:57:47;;;;;;;17.10;8.05;;;3.40;55.30;;;;;;5049077;28;34466;-76
2022/01/27 08:00:14;;;;;;;19.13;8.55;;;3.40;54.70;;;;;;5050228;28;34247;-76
2022/01/27 08:02:41;;;;;;;18.20;8.20;;;3.40;54.60;;;;;;5050181;28;34402;-76
2022/01/27 08:05:07;;;;;;;21.00;7.93;;;3.30;55.10;;;;;;5066869;28;34305;-75
2022/01/27 08:07:33;;;;;;;21.00;9.40;;;3.30;54.70;;;;;;5063830;28;34914;-76
2022/01/27 08:09:59;;;;;;;20.70;8.60;;;3.30;54.80;;;;;;5048564;28;34475;-75
2022/01/27 08:12:25;;;;;;;20.13;8.65;;;3.30;54.70;;;;;;5083354;28;34387;-76
2022/01/27 08:14:51;;;;;;;16.63;8.15;;;3.30;54.90;;;;;;5065905;28;34164;-76
2022/01/27 08:17:17;;;;;;;20.05;9.07;;;3.30;54.90;;;;;;5065504;28;36867;-76
2022/01/27 08:19:44;;;;;;;20.92;8.95;;;3.30;55.00;;;;;;5066122;28;34326;-76
2022/01/27 08:22:11;;;;;;;20.65;9.52;;;3.30;54.90;;;;;;5065994;28;34338;-76
2022/01/27 08:24:38;;;;;;;18.00;8.82;;;3.30;55.10;;;;;;5083629;28;34223;-75
2022/01/27 08:27:06;;;;;;;19.25;9.32;;;3.30;54.90;;;;;;5065560;28;36817;-76
2022/01/27 08:29:38;;;;;;;27.52;10.15;;;3.30;54.90;;;;;;5065433;28;34106;-75
2022/01/27 08:32:09;;;;;;;18.00;8.65;;;3.30;54.70;;;;;;5064718;28;34417;-76
2022/01/27 08:34:39;;;;;;;23.85;9.57;;;3.30;54.90;;;;;;5065751;28;34335;-76
2022/01/27 08:37:09;;;;;;;18.77;8.70;;;3.30;55.00;;;;;;5048518;28;34358;-76
2022/01/27 08:39:36;;;;;;;23.38;9.80;;;3.30;54.80;;;;;;5048330;28;34172;-76
2022/01/27 08:42:03;;;;;;;23.75;9.27;;;3.30;54.70;;;;;;5064917;28;34282;-76
2022/01/27 08:44:29;;;;;;;23.63;9.02;;;3.40;54.80;;;;;;5048393;28;34344;-76
2022/01/27 08:46:55;;;;;;;24.80;9.10;;;3.40;54.70;;;;;;5082621;28;34366;-76
2022/01/27 08:49:24;;;;;;;22.45;9.60;;;3.40;54.80;;;;;;5083733;28;34292;-76
2022/01/27 08:51:50;;;;;;;28.17;10.45;;;3.40;54.60;;;;;;5082804;28;34403;-76
2022/01/27 08:54:16;;;;;;;23.20;10.23;;;3.40;54.70;;;;;;5083450;28;34351;-75
2022/01/27 08:56:43;;;;;;;19.38;8.38;;;3.40;54.70;;;;;;5064421;28;35660;-76
2022/01/27 08:59:09;;;;;;;24.33;10.43;;;3.40;54.80;;;;;;5064762;28;34175;-76
2022/01/27 09:01:36;;;;;;;22.70;9.98;;;3.40;54.70;;;;;;5082717;28;34365;-76
2022/01/27 09:04:03;;;;;;;24.02;10.15;;;3.50;54.70;;;;;;5082940;28;34510;-76
2022/01/27 09:06:29;;;;;;;24.33;10.93;;;3.50;54.60;;;;;;5047821;28;35856;-76
2022/01/27 09:08:58;;;;;;;23.98;10.63;;;3.50;54.70;;;;;;5064491;28;34155;-76
2022/01/27 09:11:24;;;;;;;25.67;11.00;;;3.50;54.70;;;;;;5047996;28;34301;-75
2022/01/27 09:13:53;;;;;;;30.67;11.63;;;3.50;54.60;;;;;;5082038;28;34287;-75
2022/01/27 09:16:19;;;;;;;27.65;11.18;;;3.50;54.70;;;;;;5048171;28;35634;-76
2022/01/27 09:18:45;;;;;;;20.30;10.57;;;3.50;54.40;;;;;;5064804;28;34147;-76
2022/01/27 09:21:18;;;;;;;27.02;10.05;;;3.50;54.70;;;;;;5047771;28;34236;-76
2022/01/27 09:23:44;;;;;;;25.95;11.30;;;3.50;54.80;;;;;;5064364;28;34203;-76
2022/01/27 09:26:37;;;;;;;25.90;10.88;;;3.60;54.70;;;;;;5047272;28;35866;-76
2022/01/27 09:28:56;;;;;;;25.55;10.88;;;3.60;54.70;;;;;;5053081;28;34163;-76
2022/01/27 09:31:22;;;;;;;29.85;11.52;;;3.50;54.80;;;;;;5064793;28;34292;-76
2022/01/27 09:33:48;;;;;;;28.80;11.35;;;3.60;54.80;;;;;;5047617;28;34324;-75
2022/01/27 09:36:14;;;;;;;25.02;10.63;;;3.60;54.80;;;;;;5065372;28;34073;-77
2022/01/27 09:38:41;;;;;;;30.83;10.63;;;3.60;54.70;;;;;;5065473;28;34272;-77
2022/01/27 09:41:10;;;;;;;28.35;11.07;;;3.60;54.70;;;;;;5065049;28;34187;-75
2022/01/27 09:43:37;;;;;;;24.27;10.82;;;3.60;54.80;;;;;;5046686;28;34394;-76
2022/01/27 09:46:07;;;;;;;37.70;12.38;;;3.60;54.70;;;;;;5063819;28;35617;-76
2022/01/27 09:48:40;;;;;;;28.10;11.18;;;3.70;54.70;;;;;;5048017;28;34362;-76
2022/01/27 09:53:52;;;;;;;27.48;10.48;;;3.70;54.60;;;;;;5067046;28;34438;-76
2022/01/27 09:56:19;;;;;;;26.27;11.90;;;3.70;54.50;;;;;;5064202;28;34543;-76
2022/01/27 09:58:46;;;;;;;25.73;10.77;;;3.70;54.60;;;;;;5081915;28;34246;-75
2022/01/27 10:01:12;;;;;;;27.95;11.40;;;3.70;54.50;;;;;;5047585;28;34263;-76
2022/01/27 10:03:57;;;;;;;26.17;12.05;;;3.70;54.70;;;;;;5082015;28;34825;-76
2022/01/27 10:06:33;;;;;;;26.83;12.55;;;3.80;55.00;;;;;;5046959;28;36224;-76
2022/01/27 10:09:17;;;;;;;29.55;11.85;;;3.70;54.80;;;;;;5082518;28;34418;-75
2022/01/27 10:11:48;;;;;;;28.27;10.73;;;3.70;55.10;;;;;;5082387;28;34206;-76
2022/01/27 10:14:18;;;;;;;22.33;9.45;;;3.70;55.00;;;;;;5048286;28;34283;-77
2022/01/27 10:16:44;;;;;;;32.45;11.38;;;3.70;56.00;;;;;;5046942;28;36049;-76
2022/01/27 10:19:13;;;;;;;22.33;8.65;;;3.70;55.60;;;;;;5063946;28;34373;-76
2022/01/27 10:21:39;;;;;;;29.00;11.40;;;3.60;56.10;;;;;;5063848;28;34505;-76
2022/01/27 10:24:16;;;;;;;32.00;12.52;;;3.70;55.50;;;;;;5064589;28;34517;-76
2022/01/27 10:26:45;;;;;;;29.60;10.98;;;3.70;55.70;;;;;;5081588;28;34426;-76
2022/01/27 10:29:16;;;;;;;24.52;10.77;;;3.70;55.40;;;;;;5063218;28;34243;-76
2022/01/27 10:31:44;;;;;;;28.00;12.00;;;3.70;55.90;;;;;;5049546;28;34281;-77
2022/01/27 10:34:10;;;;;;;25.48;10.23;;;3.70;55.40;;;;;;5084973;28;34447;-76
2022/01/27 10:36:41;;;;;;;24.27;11.25;;;3.80;55.60;;;;;;5066906;28;36455;-76
2022/01/27 10:39:12;;;;;;;29.83;12.98;;;3.70;55.50;;;;;;5051903;28;34142;-76
2022/01/27 10:41:55;;;;;;;27.33;11.68;;;3.70;55.50;;;;;;5050954;28;34184;-76
2022/01/27 10:44:23;;;;;;;24.80;10.07;;;3.80;55.40;;;;;;5046534;28;34484;-76
2022/01/27 10:47:10;;;;;;;27.65;12.07;;;3.70;55.90;;;;;;5064370;28;35013;-76
2022/01/27 10:49:43;;;;;;;23.50;10.95;;;3.80;55.70;;;;;;5046531;28;34212;-77
2022/01/27 10:52:17;;;;;;;25.10;10.43;;;3.80;55.90;;;;;;5064892;28;34209;-76
2022/01/27 10:54:49;;;;;;;25.42;10.50;;;3.80;55.90;;;;;;5046411;28;34047;-75
2022/01/27 10:57:16;;;;;;;31.23;11.43;;;3.80;55.60;;;;;;5046383;28;35542;-76
2022/01/27 10:59:42;;;;;;;23.20;9.98;;;3.90;55.50;;;;;;5047291;28;34120;-76
2022/01/27 11:02:12;;;;;;;23.05;10.48;;;3.90;55.70;;;;;;5046441;28;34168;-75
2022/01/27 11:04:40;;;;;;;23.67;11.00;;;3.90;56.10;;;;;;5046415;28;34234;-76
2022/01/27 11:07:10;;;;;;;25.98;11.15;;;3.90;55.60;;;;;;5029592;28;35782;-76
2022/01/27 11:09:40;;;;;;;23.92;10.45;;;3.90;55.80;;;;;;5046409;28;34160;-76
2022/01/27 11:12:11;;;;;;;25.05;10.25;;;3.90;55.90;;;;;;5045944;28;34250;-75
2022/01/27 11:14:37;;;;;;;20.58;9.35;;;3.90;55.60;;;;;;5030258;28;34301;-76
2022/01/27 11:17:05;;;;;;;21.25;9.02;;;3.90;56.00;;;;;;5046423;28;35715;-76
2022/01/27 11:19:57;;;;;;;20.85;9.10;;;3.90;55.90;;;;;;5046511;28;34138;-75
2022/01/27 11:22:41;;;;;;;22.60;9.18;;;3.90;55.70;;;;;;5049303;28;34097;-75
2022/01/27 11:25:08;;;;;;;23.38;9.23;;;4.00;55.90;;;;;;5049520;28;34097;-75
2022/01/27 11:27:37;;;;;;;19.45;8.77;;;4.00;55.80;;;;;;5046165;28;35185;-76
2022/01/27 11:30:11;;;;;;;16.38;7.80;;;4.00;55.60;;;;;;5046114;28;34134;-75
2022/01/27 11:33:08;;;;;;;18.92;8.73;;;4.10;55.60;;;;;;5045708;28;34175;-76
2022/01/27 11:35:34;;;;;;;14.57;7.63;;;4.00;55.50;;;;;;5045803;28;34300;-75
2022/01/27 11:38:04;;;;;;;17.98;8.38;;;4.10;55.60;;;;;;5045499;28;35768;-75
2022/01/27 11:40:39;;;;;;;18.52;8.63;;;4.10;55.50;;;;;;5029413;28;34338;-75
2022/01/27 11:43:10;;;;;;;16.88;7.80;;;4.10;55.30;;;;;;5037791;28;34189;-76
2022/01/27 11:45:45;;;;;;;15.02;7.35;;;4.10;55.40;;;;;;5066585;28;34246;-76
2022/01/27 11:48:15;;;;;;;17.90;7.82;;;4.10;55.40;;;;;;5066239;28;35647;-76
2022/01/27 11:50:50;;;;;;;15.73;7.85;;;4.20;55.20;;;;;;5065753;28;34503;-75
2022/01/27 11:53:34;;;;;;;17.02;7.22;;;4.10;55.30;;;;;;5063355;28;34409;-76
2022/01/27 11:56:03;;;;;;;14.50;7.43;;;4.20;55.50;;;;;;5067095;28;34127;-76
2022/01/27 11:58:29;;;;;;;14.80;6.90;;;4.20;55.50;;;;;;5049968;28;36137;-75
2022/01/27 12:01:22;;;;;;;11.65;7.10;;;4.20;55.10;;;;;;5067212;28;34250;-76
2022/01/27 12:04:15;;;;;;;11.35;5.80;;;4.20;55.20;;;;;;5084299;28;34361;-77
2022/01/27 12:07:02;;;;;;;10.48;6.00;;;4.20;55.30;;;;;;5049267;28;34240;-75
2022/01/27 12:09:30;;;;;;;14.68;6.88;;;4.30;55.00;;;;;;5068447;28;34472;-75
2022/01/27 12:12:01;;;;;;;14.60;7.03;;;4.30;55.30;;;;;;5065523;28;34231;-76
2022/01/27 12:15:07;;;;;;;15.98;7.07;;;4.20;55.30;;;;;;5066299;28;34209;-75
2022/01/27 12:17:34;;;;;;;11.93;5.82;;;4.20;55.40;;;;;;5054761;28;34183;-75
2022/01/27 12:20:07;;;;;;;12.52;6.72;;;4.30;55.20;;;;;;5084103;28;34245;-76
2022/01/27 12:23:00;;;;;;;13.48;6.40;;;4.30;55.10;;;;;;5083359;28;34251;-75
2022/01/27 12:25:44;;;;;;;15.85;6.43;;;4.30;55.00;;;;;;5052204;28;34465;-75
2022/01/27 12:28:10;;;;;;;10.85;5.45;;;4.30;55.30;;;;;;5048903;28;34129;-75
2022/01/27 12:30:37;;;;;;;12.43;6.13;;;4.40;55.10;;;;;;5065375;28;35551;-75
2022/01/27 12:33:03;;;;;;;12.55;5.82;;;4.30;55.00;;;;;;5047822;28;34224;-76
2022/01/27 12:35:29;;;;;;;11.10;5.30;;;4.30;55.20;;;;;;5044786;28;34456;-75
2022/01/27 12:37:57;;;;;;;12.38;6.43;;;4.30;55.00;;;;;;5051511;28;34295;-76
2022/01/27 12:40:29;;;;;;;12.52;6.03;;;4.30;55.10;;;;;;5065739;28;36665;-75
2022/01/27 12:43:01;;;;;;;8.98;5.22;;;4.40;55.00;;;;;;5032455;28;34358;-76
2022/01/27 12:45:30;;;;;;;10.05;5.18;;;4.40;55.20;;;;;;5065983;28;34219;-76
2022/01/27 12:48:07;;;;;;;9.88;5.13;;;4.40;55.30;;;;;;5065061;28;34298;-75
2022/01/27 12:50:35;;;;;;;8.52;5.00;;;4.30;55.00;;;;;;5083203;28;35331;-76
2022/01/27 12:53:08;;;;;;;11.10;5.97;;;4.40;54.90;;;;;;5065041;28;34104;-76
2022/01/27 12:55:37;;;;;;;9.50;5.25;;;4.40;55.50;;;;;;5064887;28;34301;-76
2022/01/27 12:58:14;;;;;;;10.65;5.90;;;4.40;55.00;;;;;;5066052;28;34124;-75
2022/01/27 13:00:43;;;;;;;9.73;5.03;;;4.40;55.10;;;;;;5044417;28;35800;-75
2022/01/27 13:03:10;;;;;;;11.02;5.47;;;4.40;55.20;;;;;;5028507;28;34172;-76
2022/01/27 13:05:39;;;;;;;10.98;5.20;;;4.40;55.40;;;;;;5062014;28;34343;-76
2022/01/27 13:08:09;;;;;;;10.23;5.43;;;4.40;55.30;;;;;;5044394;28;34241;-76
2022/01/27 13:10:35;;;;;;;10.95;4.80;;;4.40;55.30;;;;;;5028115;28;35526;-75
2022/01/27 13:13:14;;;;;;;10.93;5.65;;;4.40;55.30;;;;;;5028205;28;34427;-76
2022/01/27 13:15:41;;;;;;;12.40;5.60;;;4.40;55.50;;;;;;5045455;28;34215;-75
2022/01/27 13:18:13;;;;;;;10.45;5.47;;;4.50;55.40;;;;;;5044630;28;34077;-76
2022/01/27 13:20:44;;;;;;;12.77;5.30;;;4.40;55.30;;;;;;5060900;28;36748;-76
2022/01/27 13:23:23;;;;;;;9.23;4.65;;;4.50;55.50;;;;;;5044494;28;34371;-76
2022/01/27 13:25:54;;;;;;;6.25;3.58;;;4.50;55.60;;;;;;5029877;28;34248;-75